| time (UTC) | temp C | wind direction | speed KPH | gust KPH | rain 1hr cm | rain 24hr cm | rain mn cm | humidity % | barometer mb |
| 20260505184156 | 28 | 346 | 3.2 | 8.0 | 0.00 | 0.00 | 0.00 | 39 | 1015.4 |
| 20260505183657 | 28 | 327 | 4.8 | 11.3 | 0.00 | 0.00 | 0.00 | 38 | 1015.5 |
| 20260505183157 | 28 | 256 | 6.4 | 11.3 | 0.00 | 0.00 | 0.00 | 39 | 1015.5 |
| 20260505182658 | 28 | 331 | 6.4 | 14.5 | 0.00 | 0.00 | 0.00 | 39 | 1015.4 |
| 20260505182156 | 28 | 345 | 3.2 | 9.7 | 0.00 | 0.00 | 0.00 | 38 | 1015.6 |
| 20260505181657 | 28 | 340 | 3.2 | 6.4 | 0.00 | 0.00 | 0.00 | 38 | 1015.5 |
| 20260505181201 | 28 | 279 | 4.8 | 11.3 | 0.00 | 0.00 | 0.00 | 37 | 1015.7 |
| 20260505180657 | 28 | 289 | 4.8 | 8.0 | 0.00 | 0.00 | 0.00 | 40 | 1015.7 |
| 20260505180156 | 28 | 148 | 4.8 | 11.3 | 0.00 | 0.00 | 0.00 | 40 | 1015.7 |
| 20260505175656 | 28 | 332 | 6.4 | 16.1 | 0.00 | 0.00 | 0.00 | 39 | 1015.7 |
| 20260505175157 | 28 | 261 | 4.8 | 11.3 | 0.00 | 0.00 | 0.00 | 40 | 1015.7 |
| 20260505174656 | 28 | 332 | 4.8 | 12.9 | 0.00 | 0.00 | 0.00 | 42 | 1015.7 |
| 20260505174200 | 28 | 145 | 6.4 | 17.7 | 0.00 | 0.00 | 0.00 | 42 | 1015.4 |
| 20260505173656 | 27 | 246 | 3.2 | 6.4 | 0.00 | 0.00 | 0.00 | 41 | 1015.7 |
| 20260505173158 | 27 | 352 | 3.2 | 8.0 | 0.00 | 0.00 | 0.00 | 41 | 1015.9 |
| 20260505172657 | 27 | 341 | 4.8 | 12.9 | 0.00 | 0.00 | 0.00 | 42 | 1015.9 |
| 20260505172156 | 27 | 189 | 8.0 | 14.5 | 0.00 | 0.00 | 0.00 | 42 | 1015.9 |
| 20260505171656 | 27 | 196 | 6.4 | 11.3 | 0.00 | 0.00 | 0.00 | 43 | 1015.9 |
| 20260505171156 | 27 | 21 | 4.8 | 11.3 | 0.00 | 0.00 | 0.00 | 43 | 1016.2 |
| 20260505170657 | 27 | 156 | 3.2 | 8.0 | 0.00 | 0.00 | 0.00 | 43 | 1016.1 |
| 20260505170158 | 27 | 231 | 3.2 | 6.4 | 0.00 | 0.00 | 0.00 | 43 | 1016.2 |
| 20260505165657 | 27 | 77 | 6.4 | 16.1 | 0.00 | 0.00 | 0.00 | 43 | 1016.2 |
| 20260505165157 | 27 | 250 | 3.2 | 9.7 | 0.00 | 0.00 | 0.00 | 44 | 1016.3 |
| 20260505164657 | 27 | 311 | 6.4 | 14.5 | 0.00 | 0.00 | 0.00 | 44 | 1016.4 |
| 20260505164157 | 26 | 54 | 4.8 | 9.7 | 0.00 | 0.00 | 0.00 | 45 | 1016.3 |
| 20260505163656 | 26 | 326 | 6.4 | 14.5 | 0.00 | 0.00 | 0.00 | 44 | 1016.4 |
| 20260505163156 | 26 | 292 | 4.8 | 8.0 | 0.00 | 0.00 | 0.00 | 46 | 1016.4 |
| 20260505162657 | 26 | 9 | 9.7 | 12.9 | 0.00 | 0.00 | 0.00 | 46 | 1016.5 |
| 20260505162157 | 26 | 6 | 6.4 | 9.7 | 0.00 | 0.00 | 0.00 | 47 | 1016.5 |
| 20260505161657 | 26 | 219 | 4.8 | 9.7 | 0.00 | 0.00 | 0.00 | 46 | 1016.6 |
| 20260505161157 | 26 | 62 | 3.2 | 11.3 | 0.00 | 0.00 | 0.00 | 47 | 1016.6 |
| 20260505160656 | 26 | 5 | 3.2 | 6.4 | 0.00 | 0.00 | 0.00 | 48 | 1016.6 |
| 20260505160157 | 26 | 278 | 8.0 | 12.9 | 0.00 | 0.00 | 0.00 | 47 | 1016.7 |
| 20260505153157 | 25 | 260 | 3.2 | 6.4 | 0.00 | 0.00 | 0.00 | 49 | 1016.7 |
| 20260505152658 | 25 | 216 | 3.2 | 9.7 | 0.00 | 0.00 | 0.00 | 50 | 1016.7 |
| 20260505152156 | 25 | 287 | 4.8 | 11.3 | 0.00 | 0.00 | 0.00 | 49 | 1016.7 |
| 20260505151701 | 25 | 271 | 6.4 | 12.9 | 0.00 | 0.00 | 0.00 | 49 | 1016.8 |
| 20260505151156 | 24 | 238 | 3.2 | 8.0 | 0.00 | 0.00 | 0.00 | 51 | 1016.8 |
| 20260505150656 | 24 | 45 | 9.7 | 14.5 | 0.00 | 0.00 | 0.00 | 51 | 1016.7 |
| 20260505150158 | 23 | 56 | 4.8 | 11.3 | 0.00 | 0.00 | 0.00 | 53 | 1016.9 |
| 20260505140158 | 21 | 225 | 8.0 | 11.3 | 0.00 | 0.00 | 0.00 | 58 | 1017.0 |
| 20260505130156 | 18 | 291 | 4.8 | 11.3 | 0.00 | 0.00 | 0.00 | 64 | 1017.3 |
| 20260505124656 | 18 | 303 | 4.8 | 6.4 | 0.00 | 0.00 | 0.00 | 65 | 1017.2 |
| 20260505124156 | 18 | 336 | 3.2 | 8.0 | 0.00 | 0.00 | 0.00 | 66 | 1017.2 |
| 20260505123657 | 18 | 265 | 4.8 | 11.3 | 0.00 | 0.00 | 0.00 | 66 | 1017.1 |
| 20260505123157 | 17 | 307 | 3.2 | 8.0 | 0.00 | 0.00 | 0.00 | 66 | 1017.2 |
| 20260505122657 | 17 | 25 | 3.2 | 3.2 | 0.00 | 0.00 | 0.00 | 67 | 1017.2 |
| 20260505122156 | 17 | 7 | 1.6 | 4.8 | 0.00 | 0.00 | 0.00 | 67 | 1017.1 |
| 20260505121656 | 17 | 308 | 3.2 | 6.4 | 0.00 | 0.00 | 0.00 | 68 | 1017.1 |
| 20260505121156 | 17 | 0 | 0.0 | 0.0 | 0.00 | 0.00 | 0.00 | 69 | 1017.1 |
| 20260505120657 | 16 | 98 | 0.0 | 0.0 | 0.00 | 0.00 | 0.00 | 69 | 1017.1 |
| 20260505120157 | 16 | 7 | 3.2 | 4.8 | 0.00 | 0.00 | 0.00 | 70 | 1017.0 |
| 20260505115657 | 16 | 175 | 3.2 | 3.2 | 0.00 | 0.00 | 0.00 | 70 | 1017.0 |
| 20260505115156 | 16 | 342 | 1.6 | 4.8 | 0.00 | 0.00 | 0.00 | 71 | 1017.0 |
| 20260505114657 | 16 | 332 | 4.8 | 6.4 | 0.00 | 0.00 | 0.00 | 71 | 1017.1 |
| 20260505114156 | 16 | 314 | 1.6 | 3.2 | 0.00 | 0.00 | 0.00 | 71 | 1017.0 |
| 20260505113658 | 16 | 307 | 3.2 | 6.4 | 0.00 | 0.00 | 0.00 | 72 | 1017.0 |
| 20260505113156 | 15 | 193 | 1.6 | 3.2 | 0.00 | 0.00 | 0.00 | 72 | 1016.9 |
| 20260505112657 | 15 | 61 | 1.6 | 3.2 | 0.00 | 0.00 | 0.00 | 72 | 1016.9 |
| 20260505112156 | 15 | 219 | 3.2 | 4.8 | 0.00 | 0.00 | 0.00 | 73 | 1016.9 |
| 20260505111656 | 15 | 3 | 1.6 | 3.2 | 0.00 | 0.00 | 0.00 | 73 | 1016.8 |
| 20260505111157 | 15 | 323 | 1.6 | 3.2 | 0.00 | 0.00 | 0.00 | 73 | 1016.8 |
| 20260505110657 | 15 | 187 | 1.6 | 3.2 | 0.00 | 0.00 | 0.00 | 74 | 1016.8 |
| 20260505110157 | 15 | 193 | 1.6 | 3.2 | 0.00 | 0.00 | 0.00 | 74 | 1016.7 |
| 20260505102157 | 14 | 25 | 1.6 | 4.8 | 0.00 | 0.00 | 0.00 | 74 | 1016.2 |
| 20260505101656 | 14 | 217 | 0.0 | 3.2 | 0.00 | 0.00 | 0.00 | 74 | 1016.2 |
| 20260505101156 | 14 | 152 | 1.6 | 1.6 | 0.00 | 0.00 | 0.00 | 74 | 1016.2 |
| 20260505100657 | 15 | 297 | 1.6 | 3.2 | 0.00 | 0.00 | 0.00 | 74 | 1016.1 |
| 20260505100156 | 15 | 324 | 0.0 | 1.6 | 0.00 | 0.00 | 0.00 | 74 | 1016.0 |
| 20260505095657 | 15 | 0 | 0.0 | 0.0 | 0.00 | 0.00 | 0.00 | 74 | 1016.0 |
| 20260505095156 | 15 | 98 | 1.6 | 3.2 | 0.00 | 0.00 | 0.00 | 73 | 1015.9 |
| 20260505094656 | 15 | 344 | 0.0 | 0.0 | 0.00 | 0.00 | 0.00 | 73 | 1015.9 |
| 20260505094156 | 15 | 192 | 0.0 | 1.6 | 0.00 | 0.00 | 0.00 | 73 | 1015.9 |
| 20260505093656 | 15 | 308 | 1.6 | 3.2 | 0.00 | 0.00 | 0.00 | 73 | 1015.8 |
| 20260505093156 | 15 | 38 | 1.6 | 1.6 | 0.00 | 0.00 | 0.00 | 73 | 1015.8 |
| 20260505092656 | 15 | 9 | 3.2 | 3.2 | 0.00 | 0.00 | 0.00 | 73 | 1015.8 |
| 20260505092157 | 15 | 318 | 1.6 | 3.2 | 0.00 | 0.00 | 0.00 | 73 | 1015.8 |
| 20260505091657 | 15 | 204 | 3.2 | 4.8 | 0.00 | 0.00 | 0.00 | 73 | 1015.8 |
| 20260505091156 | 15 | 0 | 0.0 | 0.0 | 0.00 | 0.00 | 0.00 | 73 | 1015.7 |
| 20260505090656 | 15 | 198 | 0.0 | 3.2 | 0.00 | 0.00 | 0.00 | 73 | 1015.7 |
| 20260505090156 | 15 | 283 | 1.6 | 3.2 | 0.00 | 0.00 | 0.00 | 72 | 1015.7 |
| 20260505085657 | 15 | 75 | 1.6 | 6.4 | 0.00 | 0.00 | 0.00 | 72 | 1015.7 |
| 20260505085156 | 15 | 193 | 1.6 | 4.8 | 0.00 | 0.00 | 0.00 | 72 | 1015.7 |
| 20260505084657 | 15 | 348 | 0.0 | 3.2 | 0.00 | 0.00 | 0.00 | 72 | 1015.7 |
| 20260505084157 | 15 | 307 | 0.0 | 1.6 | 0.00 | 0.00 | 0.00 | 72 | 1015.7 |
| 20260505083657 | 15 | 38 | 1.6 | 3.2 | 0.00 | 0.00 | 0.00 | 72 | 1015.7 |
| 20260505083156 | 15 | 0 | 0.0 | 0.0 | 0.00 | 0.00 | 0.00 | 72 | 1015.7 |
| 20260505082657 | 15 | 215 | 0.0 | 3.2 | 0.00 | 0.00 | 0.00 | 72 | 1015.7 |
| 20260505082206 | 15 | 317 | 1.6 | 6.4 | 0.00 | 0.00 | 0.00 | 71 | 1015.7 |
| 20260505081656 | 15 | 341 | 0.0 | 3.2 | 0.00 | 0.00 | 0.00 | 71 | 1015.7 |
| 20260505081157 | 15 | 345 | 1.6 | 3.2 | 0.00 | 0.00 | 0.00 | 71 | 1015.6 |
| 20260505080656 | 15 | 350 | 1.6 | 4.8 | 0.00 | 0.00 | 0.00 | 70 | 1015.5 |
| 20260505080157 | 15 | 276 | 0.0 | 1.6 | 0.00 | 0.00 | 0.00 | 70 | 1015.5 |
| 20260505075656 | 15 | 326 | 0.0 | 3.2 | 0.00 | 0.00 | 0.00 | 70 | 1015.4 |
| 20260505075157 | 15 | 301 | 1.6 | 3.2 | 0.00 | 0.00 | 0.00 | 70 | 1015.4 |
| 20260505074656 | 16 | 145 | 0.0 | 3.2 | 0.00 | 0.00 | 0.00 | 70 | 1015.4 |
| 20260505074156 | 16 | 131 | 0.0 | 0.0 | 0.00 | 0.00 | 0.00 | 69 | 1015.4 |
| 20260505073657 | 16 | 0 | 1.6 | 4.8 | 0.00 | 0.00 | 0.00 | 69 | 1015.3 |
| 20260505073156 | 16 | 346 | 3.2 | 4.8 | 0.00 | 0.00 | 0.00 | 69 | 1015.2 |
| 20260505072656 | 16 | 0 | 1.6 | 4.8 | 0.00 | 0.00 | 0.00 | 69 | 1015.2 |
| 20260505072156 | 16 | 319 | 0.0 | 1.6 | 0.00 | 0.00 | 0.00 | 69 | 1015.2 |
| 20260505071657 | 16 | 113 | 1.6 | 4.8 | 0.00 | 0.00 | 0.00 | 68 | 1015.3 |
| 20260505071157 | 16 | 297 | 1.6 | 3.2 | 0.00 | 0.00 | 0.00 | 68 | 1015.2 |
| 20260505070656 | 16 | 330 | 3.2 | 6.4 | 0.00 | 0.00 | 0.00 | 68 | 1015.2 |
| 20260505070156 | 16 | 6 | 0.0 | 1.6 | 0.00 | 0.00 | 0.00 | 68 | 1015.2 |
| 20260505065656 | 16 | 340 | 1.6 | 3.2 | 0.00 | 0.00 | 0.00 | 67 | 1015.2 |
| 20260505065156 | 16 | 317 | 3.2 | 8.0 | 0.00 | 0.00 | 0.00 | 67 | 1015.1 |
| 20260505064657 | 16 | 227 | 1.6 | 3.2 | 0.00 | 0.00 | 0.00 | 67 | 1015.2 |
| 20260505064157 | 16 | 297 | 1.6 | 6.4 | 0.00 | 0.00 | 0.00 | 67 | 1015.2 |
| 20260505063657 | 16 | 82 | 0.0 | 1.6 | 0.00 | 0.00 | 0.00 | 66 | 1015.3 |
| 20260505063156 | 16 | 88 | 3.2 | 4.8 | 0.00 | 0.00 | 0.00 | 66 | 1015.3 |
| 20260505062657 | 16 | 329 | 1.6 | 6.4 | 0.00 | 0.00 | 0.00 | 66 | 1015.3 |
| 20260505062156 | 16 | 322 | 1.6 | 6.4 | 0.00 | 0.00 | 0.00 | 66 | 1015.3 |
| 20260505061656 | 16 | 113 | 1.6 | 3.2 | 0.00 | 0.00 | 0.00 | 65 | 1015.4 |
| 20260505061157 | 17 | 99 | 1.6 | 4.8 | 0.00 | 0.00 | 0.00 | 65 | 1015.3 |
| 20260505060657 | 17 | 316 | 1.6 | 3.2 | 0.00 | 0.00 | 0.00 | 65 | 1015.3 |
| 20260505060156 | 17 | 15 | 1.6 | 3.2 | 0.00 | 0.00 | 0.00 | 64 | 1015.3 |
| 20260505055656 | 17 | 271 | 0.0 | 1.6 | 0.00 | 0.00 | 0.00 | 64 | 1015.3 |
| 20260505055156 | 17 | 303 | 3.2 | 8.0 | 0.00 | 0.00 | 0.00 | 64 | 1015.3 |
| 20260505054656 | 17 | 207 | 1.6 | 6.4 | 0.00 | 0.00 | 0.00 | 63 | 1015.4 |
| 20260505054156 | 17 | 333 | 1.6 | 8.0 | 0.00 | 0.00 | 0.00 | 64 | 1015.5 |
| 20260505053659 | 17 | 299 | 3.2 | 8.0 | 0.00 | 0.00 | 0.00 | 63 | 1015.5 |
| 20260505053156 | 17 | 38 | 3.2 | 6.4 | 0.00 | 0.00 | 0.00 | 63 | 1015.6 |
| 20260505052656 | 17 | 100 | 0.0 | 3.2 | 0.00 | 0.00 | 0.00 | 63 | 1015.6 |
| 20260505052156 | 17 | 26 | 1.6 | 6.4 | 0.00 | 0.00 | 0.00 | 63 | 1015.5 |
| 20260505051656 | 17 | 284 | 3.2 | 6.4 | 0.00 | 0.00 | 0.00 | 63 | 1015.6 |
| 20260505051156 | 17 | 6 | 1.6 | 6.4 | 0.00 | 0.00 | 0.00 | 63 | 1015.6 |
| 20260505050656 | 17 | 53 | 1.6 | 3.2 | 0.00 | 0.00 | 0.00 | 63 | 1015.6 |
| 20260505050156 | 17 | 326 | 1.6 | 6.4 | 0.00 | 0.00 | 0.00 | 63 | 1015.7 |
| 20260505041656 | 18 | 356 | 1.6 | 4.8 | 0.00 | 0.00 | 0.00 | 63 | 1015.5 |
| 20260505041157 | 18 | 12 | 3.2 | 9.7 | 0.00 | 0.00 | 0.00 | 63 | 1015.5 |
| 20260505040656 | 18 | 51 | 3.2 | 8.0 | 0.00 | 0.00 | 0.00 | 63 | 1015.5 |
| 20260505040157 | 18 | 71 | 3.2 | 8.0 | 0.00 | 0.00 | 0.00 | 63 | 1015.5 |
| 20260505035657 | 18 | 47 | 3.2 | 12.9 | 0.00 | 0.00 | 0.00 | 62 | 1015.4 |
| 20260505035156 | 18 | 10 | 1.6 | 6.4 | 0.00 | 0.00 | 0.00 | 62 | 1015.4 |
| 20260505034656 | 18 | 36 | 3.2 | 9.7 | 0.00 | 0.00 | 0.00 | 62 | 1015.4 |
| 20260505034157 | 18 | 313 | 4.8 | 8.0 | 0.00 | 0.00 | 0.00 | 62 | 1015.3 |
| 20260505033657 | 18 | 352 | 1.6 | 4.8 | 0.00 | 0.00 | 0.00 | 62 | 1015.3 |
| 20260505033157 | 18 | 343 | 3.2 | 6.4 | 0.00 | 0.00 | 0.00 | 62 | 1015.2 |
| 20260505032656 | 18 | 321 | 1.6 | 3.2 | 0.00 | 0.00 | 0.00 | 62 | 1015.3 |
| 20260505032157 | 18 | 338 | 1.6 | 3.2 | 0.00 | 0.00 | 0.00 | 62 | 1015.3 |
| 20260505031656 | 18 | 131 | 3.2 | 4.8 | 0.00 | 0.00 | 0.00 | 62 | 1015.4 |
| 20260505031157 | 18 | 56 | 4.8 | 6.4 | 0.00 | 0.00 | 0.00 | 62 | 1015.2 |
| 20260505030657 | 18 | 219 | 6.4 | 8.0 | 0.00 | 0.00 | 0.00 | 62 | 1015.3 |
| 20260505030156 | 18 | 208 | 4.8 | 6.4 | 0.00 | 0.00 | 0.00 | 62 | 1015.4 |
| 20260505025656 | 18 | 49 | 4.8 | 6.4 | 0.00 | 0.00 | 0.00 | 63 | 1015.3 |
| 20260505025156 | 18 | 47 | 3.2 | 4.8 | 0.00 | 0.00 | 0.00 | 63 | 1015.4 |
| 20260505024656 | 18 | 49 | 4.8 | 6.4 | 0.00 | 0.00 | 0.00 | 63 | 1015.3 |
| 20260505024156 | 18 | 53 | 6.4 | 9.7 | 0.00 | 0.00 | 0.00 | 63 | 1015.2 |
| 20260505023657 | 18 | 50 | 3.2 | 8.0 | 0.00 | 0.00 | 0.00 | 63 | 1015.2 |
| 20260505023156 | 18 | 51 | 4.8 | 11.3 | 0.00 | 0.00 | 0.00 | 63 | 1015.2 |
| 20260505022656 | 18 | 52 | 6.4 | 8.0 | 0.00 | 0.00 | 0.00 | 63 | 1015.2 |
| 20260505022156 | 18 | 63 | 4.8 | 6.4 | 0.00 | 0.00 | 0.00 | 63 | 1015.2 |
| 20260505021656 | 18 | 50 | 3.2 | 6.4 | 0.00 | 0.00 | 0.00 | 64 | 1015.2 |
| 20260505021156 | 18 | 49 | 3.2 | 4.8 | 0.00 | 0.00 | 0.00 | 63 | 1015.2 |
| 20260505020656 | 18 | 49 | 3.2 | 6.4 | 0.00 | 0.00 | 0.00 | 64 | 1015.3 |
| 20260505020159 | 19 | 52 | 6.4 | 11.3 | 0.00 | 0.00 | 0.00 | 63 | 1015.4 |
| 20260505015657 | 19 | 169 | 3.2 | 6.4 | 0.00 | 0.00 | 0.00 | 64 | 1015.3 |
| 20260505015156 | 19 | 210 | 3.2 | 6.4 | 0.00 | 0.00 | 0.00 | 64 | 1015.2 |
| 20260505014657 | 19 | 229 | 3.2 | 4.8 | 0.00 | 0.00 | 0.00 | 64 | 1015.2 |
| 20260505014156 | 19 | 208 | 4.8 | 6.4 | 0.00 | 0.00 | 0.00 | 64 | 1015.2 |
| 20260505013656 | 19 | 45 | 4.8 | 6.4 | 0.00 | 0.00 | 0.00 | 63 | 1015.1 |
| 20260505013156 | 19 | 45 | 3.2 | 6.4 | 0.00 | 0.00 | 0.00 | 63 | 1015.0 |
| 20260505012657 | 19 | 52 | 3.2 | 4.8 | 0.00 | 0.00 | 0.00 | 63 | 1015.0 |
| 20260505012156 | 19 | 47 | 3.2 | 4.8 | 0.00 | 0.00 | 0.00 | 63 | 1014.9 |
| 20260505011656 | 19 | 224 | 4.8 | 8.0 | 0.00 | 0.00 | 0.00 | 63 | 1014.8 |
| 20260505011156 | 19 | 121 | 4.8 | 8.0 | 0.00 | 0.00 | 0.00 | 63 | 1014.7 |
| 20260505010657 | 19 | 57 | 4.8 | 8.0 | 0.00 | 0.00 | 0.00 | 63 | 1014.6 |
| 20260505010157 | 20 | 72 | 3.2 | 4.8 | 0.00 | 0.00 | 0.00 | 63 | 1014.5 |
| 20260505005657 | 20 | 94 | 4.8 | 6.4 | 0.00 | 0.00 | 0.00 | 62 | 1014.4 |
| 20260505005156 | 20 | 55 | 6.4 | 11.3 | 0.00 | 0.00 | 0.00 | 62 | 1014.4 |
| 20260505004656 | 20 | 61 | 8.0 | 17.7 | 0.00 | 0.00 | 0.00 | 62 | 1014.2 |
| 20260505004157 | 20 | 61 | 3.2 | 6.4 | 0.00 | 0.00 | 0.00 | 62 | 1014.2 |
| 20260505003656 | 20 | 72 | 4.8 | 9.7 | 0.00 | 0.00 | 0.00 | 61 | 1014.2 |
| 20260505003157 | 20 | 62 | 6.4 | 9.7 | 0.00 | 0.00 | 0.00 | 61 | 1014.2 |
| 20260505002656 | 20 | 52 | 6.4 | 9.7 | 0.00 | 0.00 | 0.00 | 61 | 1014.1 |
| 20260505002156 | 20 | 56 | 3.2 | 6.4 | 0.00 | 0.00 | 0.00 | 61 | 1014.1 |
| 20260505001704 | 20 | 56 | 4.8 | 6.4 | 0.00 | 0.00 | 0.00 | 60 | 1014.1 |
| 20260505001156 | 20 | 51 | 4.8 | 8.0 | 0.00 | 0.00 | 0.00 | 60 | 1014.1 |
| 20260505000656 | 20 | 46 | 3.2 | 8.0 | 0.00 | 0.00 | 0.00 | 60 | 1014.0 |
| 20260505000156 | 21 | 72 | 3.2 | 9.7 | 0.00 | 0.00 | 0.00 | 59 | 1013.9 |
| 20260504235656 | 21 | 228 | 1.6 | 8.0 | 0.00 | 0.00 | 0.00 | 59 | 1013.8 |
| 20260504235157 | 21 | 210 | 6.4 | 9.7 | 0.00 | 0.00 | 0.00 | 59 | 1013.8 |
| 20260504234656 | 21 | 220 | 4.8 | 8.0 | 0.00 | 0.00 | 0.00 | 58 | 1013.7 |
| 20260504234158 | 21 | 219 | 3.2 | 8.0 | 0.00 | 0.00 | 0.00 | 58 | 1013.6 |
| 20260504233657 | 21 | 214 | 3.2 | 12.9 | 0.00 | 0.00 | 0.00 | 57 | 1013.5 |
| 20260504233156 | 21 | 250 | 6.4 | 14.5 | 0.00 | 0.00 | 0.00 | 57 | 1013.5 |
| 20260504232657 | 21 | 238 | 4.8 | 12.9 | 0.00 | 0.00 | 0.00 | 56 | 1013.5 |
| 20260504232156 | 22 | 236 | 6.4 | 12.9 | 0.00 | 0.00 | 0.00 | 56 | 1013.4 |
| 20260504231657 | 22 | 212 | 6.4 | 11.3 | 0.00 | 0.00 | 0.00 | 55 | 1013.4 |
| 20260504231156 | 22 | 333 | 3.2 | 6.4 | 0.00 | 0.00 | 0.00 | 54 | 1013.4 |
| 20260504230657 | 22 | 303 | 4.8 | 9.7 | 0.00 | 0.00 | 0.00 | 53 | 1013.3 |
| 20260504230156 | 23 | 225 | 8.0 | 16.1 | 0.00 | 0.00 | 0.00 | 53 | 1013.3 |
| 20260504225656 | 23 | 324 | 6.4 | 12.9 | 0.00 | 0.00 | 0.00 | 52 | 1013.3 |
| 20260504225156 | 24 | 202 | 4.8 | 9.7 | 0.00 | 0.00 | 0.00 | 50 | 1013.2 |
| 20260504224657 | 24 | 285 | 6.4 | 12.9 | 0.00 | 0.00 | 0.00 | 48 | 1013.1 |
| 20260504224156 | 25 | 242 | 4.8 | 11.3 | 0.00 | 0.00 | 0.00 | 46 | 1013.1 |
| 20260504223656 | 25 | 297 | 6.4 | 12.9 | 0.00 | 0.00 | 0.00 | 44 | 1013.0 |
| 20260504223157 | 25 | 59 | 1.6 | 6.4 | 0.00 | 0.00 | 0.00 | 39 | 1012.9 |
| 20260504222657 | 25 | 307 | 6.4 | 11.3 | 0.00 | 0.00 | 0.00 | 39 | 1012.9 |
| 20260504222156 | 25 | 324 | 4.8 | 9.7 | 0.00 | 0.00 | 0.00 | 39 | 1012.8 |
| 20260504221656 | 26 | 280 | 3.2 | 9.7 | 0.00 | 0.00 | 0.00 | 39 | 1013.1 |
| 20260504221157 | 26 | 359 | 4.8 | 9.7 | 0.00 | 0.00 | 0.00 | 39 | 1013.0 |
| 20260504220656 | 26 | 46 | 4.8 | 17.7 | 0.00 | 0.00 | 0.00 | 39 | 1013.0 |
| 20260504220156 | 26 | 344 | 6.4 | 11.3 | 0.00 | 0.00 | 0.00 | 39 | 1012.9 |
| 20260504215657 | 26 | 296 | 3.2 | 8.0 | 0.00 | 0.00 | 0.00 | 39 | 1012.8 |
| 20260504215157 | 26 | 308 | 6.4 | 9.7 | 0.00 | 0.00 | 0.00 | 38 | 1012.9 |
| 20260504214657 | 26 | 344 | 6.4 | 11.3 | 0.00 | 0.00 | 0.00 | 39 | 1013.0 |
| 20260504214157 | 26 | 55 | 3.2 | 9.7 | 0.00 | 0.00 | 0.00 | 38 | 1013.0 |
| 20260504213656 | 26 | 341 | 6.4 | 16.1 | 0.00 | 0.00 | 0.00 | 38 | 1013.0 |
| 20260504213158 | 26 | 328 | 6.4 | 11.3 | 0.00 | 0.00 | 0.00 | 38 | 1013.1 |
| 20260504212657 | 26 | 297 | 4.8 | 11.3 | 0.00 | 0.00 | 0.00 | 38 | 1013.1 |
| 20260504212156 | 26 | 29 | 3.2 | 9.7 | 0.00 | 0.00 | 0.00 | 38 | 1013.2 |
| 20260504211657 | 26 | 334 | 3.2 | 6.4 | 0.00 | 0.00 | 0.00 | 38 | 1013.2 |
| 20260504211157 | 26 | 13 | 3.2 | 6.4 | 0.00 | 0.00 | 0.00 | 38 | 1013.2 |
| 20260504210656 | 27 | 267 | 1.6 | 3.2 | 0.00 | 0.00 | 0.00 | 38 | 1013.2 |
| 20260504210157 | 26 | 357 | 4.8 | 8.0 | 0.00 | 0.00 | 0.00 | 38 | 1013.1 |
| 20260504205657 | 26 | 2 | 4.8 | 11.3 | 0.00 | 0.00 | 0.00 | 38 | 1013.2 |
| 20260504205157 | 26 | 197 | 1.6 | 6.4 | 0.00 | 0.00 | 0.00 | 38 | 1013.2 |
| 20260504204656 | 26 | 40 | 4.8 | 16.1 | 0.00 | 0.00 | 0.00 | 39 | 1013.2 |
| 20260504204157 | 26 | 300 | 4.8 | 9.7 | 0.00 | 0.00 | 0.00 | 38 | 1013.3 |
| 20260504203657 | 26 | 66 | 3.2 | 8.0 | 0.00 | 0.00 | 0.00 | 38 | 1013.2 |
| 20260504203156 | 26 | 209 | 4.8 | 9.7 | 0.00 | 0.00 | 0.00 | 39 | 1013.2 |
| 20260504202656 | 26 | 333 | 8.0 | 12.9 | 0.00 | 0.00 | 0.00 | 38 | 1013.2 |
| 20260504202157 | 26 | 63 | 8.0 | 19.3 | 0.00 | 0.00 | 0.00 | 39 | 1013.2 |
| 20260504201656 | 26 | 304 | 4.8 | 8.0 | 0.00 | 0.00 | 0.00 | 38 | 1013.4 |
| 20260504201157 | 26 | 162 | 4.8 | 9.7 | 0.00 | 0.00 | 0.00 | 38 | 1013.3 |
| 20260504200656 | 26 | 316 | 4.8 | 11.3 | 0.00 | 0.00 | 0.00 | 39 | 1013.4 |
| 20260504200156 | 26 | 255 | 6.4 | 14.5 | 0.00 | 0.00 | 0.00 | 38 | 1013.4 |
| 20260504195656 | 26 | 12 | 6.4 | 11.3 | 0.00 | 0.00 | 0.00 | 38 | 1013.5 |
| 20260504195157 | 26 | 330 | 3.2 | 6.4 | 0.00 | 0.00 | 0.00 | 39 | 1013.4 |
| 20260504194657 | 26 | 341 | 6.4 | 11.3 | 0.00 | 0.00 | 0.00 | 38 | 1013.6 |
| 20260504194156 | 26 | 353 | 4.8 | 8.0 | 0.00 | 0.00 | 0.00 | 40 | 1013.7 |
| 20260504193658 | 26 | 347 | 11.3 | 17.7 | 0.00 | 0.00 | 0.00 | 38 | 1013.6 |
| 20260504193157 | 26 | 353 | 4.8 | 8.0 | 0.00 | 0.00 | 0.00 | 38 | 1013.7 |
| 20260504192659 | 26 | 289 | 1.6 | 4.8 | 0.00 | 0.00 | 0.00 | 38 | 1013.8 |
| 20260504192156 | 26 | 44 | 8.0 | 14.5 | 0.00 | 0.00 | 0.00 | 38 | 1013.9 |
| 20260504191656 | 26 | 16 | 3.2 | 6.4 | 0.00 | 0.00 | 0.00 | 40 | 1014.0 |
| 20260504191156 | 26 | 295 | 4.8 | 11.3 | 0.00 | 0.00 | 0.00 | 39 | 1014.0 |
| 20260504190657 | 26 | 11 | 6.4 | 12.9 | 0.00 | 0.00 | 0.00 | 39 | 1014.0 |
| 20260504190156 | 26 | 298 | 3.2 | 9.7 | 0.00 | 0.00 | 0.00 | 39 | 1014.1 |
| 20260504185656 | 26 | 217 | 4.8 | 9.7 | 0.00 | 0.00 | 0.00 | 40 | 1014.1 |
| 20260504185157 | 26 | 265 | 4.8 | 9.7 | 0.00 | 0.00 | 0.00 | 40 | 1014.3 |
| 20260504184656 | 26 | 156 | 0.0 | 3.2 | 0.00 | 0.00 | 0.00 | 41 | 1014.2 |